sensor_id;sensor_type;location;lat;lon;timestamp;P1;durP1;ratioP1;P2;durP2;ratioP2
6007;SDS011;3032;49.484;11.112;2023-12-29T00:02:07;4.40;;;4.07;;
6007;SDS011;3032;49.484;11.112;2023-12-29T00:04:33;4.60;;;4.20;;
6007;SDS011;3032;49.484;11.112;2023-12-29T00:06:58;6.97;;;4.40;;
6007;SDS011;3032;49.484;11.112;2023-12-29T00:09:24;4.60;;;4.10;;
6007;SDS011;3032;49.484;11.112;2023-12-29T00:11:50;4.80;;;4.07;;
6007;SDS011;3032;49.484;11.112;2023-12-29T00:14:16;4.32;;;3.92;;
6007;SDS011;3032;49.484;11.112;2023-12-29T00:16:42;4.13;;;3.60;;
6007;SDS011;3032;49.484;11.112;2023-12-29T00:19:09;4.85;;;4.07;;
6007;SDS011;3032;49.484;11.112;2023-12-29T00:21:35;5.33;;;3.87;;
6007;SDS011;3032;49.484;11.112;2023-12-29T00:24:01;4.85;;;4.25;;
6007;SDS011;3032;49.484;11.112;2023-12-29T00:26:27;3.80;;;3.50;;
6007;SDS011;3032;49.484;11.112;2023-12-29T00:28:53;3.53;;;3.13;;
6007;SDS011;3032;49.484;11.112;2023-12-29T00:31:19;4.00;;;3.63;;
6007;SDS011;3032;49.484;11.112;2023-12-29T00:33:44;6.10;;;3.03;;
6007;SDS011;3032;49.484;11.112;2023-12-29T00:36:14;4.27;;;3.80;;
6007;SDS011;3032;49.484;11.112;2023-12-29T00:38:41;3.88;;;3.33;;
6007;SDS011;3032;49.484;11.112;2023-12-29T00:41:06;6.00;;;3.17;;
6007;SDS011;3032;49.484;11.112;2023-12-29T00:43:32;3.10;;;2.90;;
6007;SDS011;3032;49.484;11.112;2023-12-29T00:45:57;4.20;;;3.80;;
6007;SDS011;3032;49.484;11.112;2023-12-29T00:48:23;3.00;;;2.83;;
6007;SDS011;3032;49.484;11.112;2023-12-29T00:50:48;3.30;;;3.10;;
6007;SDS011;3032;49.484;11.112;2023-12-29T00:53:14;2.87;;;2.67;;
6007;SDS011;3032;49.484;11.112;2023-12-29T00:55:39;5.33;;;3.10;;
6007;SDS011;3032;49.484;11.112;2023-12-29T00:58:05;3.27;;;2.97;;
6007;SDS011;3032;49.484;11.112;2023-12-29T01:00:31;3.50;;;3.20;;
6007;SDS011;3032;49.484;11.112;2023-12-29T01:02:56;3.00;;;2.80;;
6007;SDS011;3032;49.484;11.112;2023-12-29T01:05:22;3.53;;;3.00;;
6007;SDS011;3032;49.484;11.112;2023-12-29T01:07:47;2.80;;;2.60;;
6007;SDS011;3032;49.484;11.112;2023-12-29T01:10:13;2.73;;;2.53;;
6007;SDS011;3032;49.484;11.112;2023-12-29T01:12:38;2.57;;;2.40;;
6007;SDS011;3032;49.484;11.112;2023-12-29T01:15:04;2.63;;;2.43;;
6007;SDS011;3032;49.484;11.112;2023-12-29T01:17:30;2.88;;;2.67;;
6007;SDS011;3032;49.484;11.112;2023-12-29T01:19:56;2.50;;;2.23;;
6007;SDS011;3032;49.484;11.112;2023-12-29T01:22:21;2.33;;;2.20;;
6007;SDS011;3032;49.484;11.112;2023-12-29T01:24:47;2.53;;;2.33;;
6007;SDS011;3032;49.484;11.112;2023-12-29T01:27:12;9.50;;;3.40;;
6007;SDS011;3032;49.484;11.112;2023-12-29T01:29:38;3.47;;;2.37;;
6007;SDS011;3032;49.484;11.112;2023-12-29T01:32:03;2.33;;;2.23;;
6007;SDS011;3032;49.484;11.112;2023-12-29T01:34:32;2.40;;;2.30;;
6007;SDS011;3032;49.484;11.112;2023-12-29T01:37:02;2.70;;;2.50;;
6007;SDS011;3032;49.484;11.112;2023-12-29T01:42:04;3.10;;;2.90;;
6007;SDS011;3032;49.484;11.112;2023-12-29T01:44:30;2.22;;;2.13;;
6007;SDS011;3032;49.484;11.112;2023-12-29T01:46:58;2.27;;;2.17;;
6007;SDS011;3032;49.484;11.112;2023-12-29T01:49:25;2.53;;;2.28;;
6007;SDS011;3032;49.484;11.112;2023-12-29T01:51:52;2.10;;;2.00;;
6007;SDS011;3032;49.484;11.112;2023-12-29T01:54:20;2.17;;;2.05;;
6007;SDS011;3032;49.484;11.112;2023-12-29T01:56:48;2.00;;;1.90;;
6007;SDS011;3032;49.484;11.112;2023-12-29T01:59:15;1.60;;;1.50;;
6007;SDS011;3032;49.484;11.112;2023-12-29T02:01:41;2.60;;;2.40;;
6007;SDS011;3032;49.484;11.112;2023-12-29T02:04:08;2.15;;;2.00;;
6007;SDS011;3032;49.484;11.112;2023-12-29T02:06:37;2.40;;;2.28;;
6007;SDS011;3032;49.484;11.112;2023-12-29T02:09:04;2.20;;;2.10;;
6007;SDS011;3032;49.484;11.112;2023-12-29T02:11:30;2.93;;;2.73;;
6007;SDS011;3032;49.484;11.112;2023-12-29T02:13:56;2.10;;;2.00;;
6007;SDS011;3032;49.484;11.112;2023-12-29T02:16:28;2.28;;;2.08;;
6007;SDS011;3032;49.484;11.112;2023-12-29T02:19:04;2.08;;;1.98;;
6007;SDS011;3032;49.484;11.112;2023-12-29T02:21:49;2.20;;;2.10;;
6007;SDS011;3032;49.484;11.112;2023-12-29T02:24:14;2.10;;;2.00;;
6007;SDS011;3032;49.484;11.112;2023-12-29T02:26:40;2.30;;;2.20;;
6007;SDS011;3032;49.484;11.112;2023-12-29T02:29:12;2.38;;;2.17;;
6007;SDS011;3032;49.484;11.112;2023-12-29T02:31:43;2.55;;;2.15;;
6007;SDS011;3032;49.484;11.112;2023-12-29T02:34:12;2.50;;;2.33;;
6007;SDS011;3032;49.484;11.112;2023-12-29T02:36:40;2.60;;;2.40;;
6007;SDS011;3032;49.484;11.112;2023-12-29T02:39:08;2.97;;;2.78;;
6007;SDS011;3032;49.484;11.112;2023-12-29T02:41:35;3.15;;;2.70;;
6007;SDS011;3032;49.484;11.112;2023-12-29T02:44:02;3.47;;;3.17;;
6007;SDS011;3032;49.484;11.112;2023-12-29T02:46:28;3.43;;;3.13;;
6007;SDS011;3032;49.484;11.112;2023-12-29T02:48:53;3.00;;;2.90;;
6007;SDS011;3032;49.484;11.112;2023-12-29T02:51:19;3.53;;;3.20;;
6007;SDS011;3032;49.484;11.112;2023-12-29T02:53:45;3.67;;;3.37;;
6007;SDS011;3032;49.484;11.112;2023-12-29T02:56:10;5.00;;;3.27;;
6007;SDS011;3032;49.484;11.112;2023-12-29T02:58:36;3.60;;;3.30;;
6007;SDS011;3032;49.484;11.112;2023-12-29T03:01:01;3.47;;;3.27;;
6007;SDS011;3032;49.484;11.112;2023-12-29T03:03:27;3.92;;;3.63;;
6007;SDS011;3032;49.484;11.112;2023-12-29T03:05:53;4.33;;;3.93;;
6007;SDS011;3032;49.484;11.112;2023-12-29T03:08:18;4.47;;;4.07;;
6007;SDS011;3032;49.484;11.112;2023-12-29T03:10:44;3.67;;;3.37;;
6007;SDS011;3032;49.484;11.112;2023-12-29T03:13:09;3.90;;;3.60;;
6007;SDS011;3032;49.484;11.112;2023-12-29T03:15:35;4.17;;;3.77;;
6007;SDS011;3032;49.484;11.112;2023-12-29T03:18:00;4.27;;;3.60;;
6007;SDS011;3032;49.484;11.112;2023-12-29T03:20:26;4.27;;;3.87;;
6007;SDS011;3032;49.484;11.112;2023-12-29T03:22:51;4.07;;;3.77;;
6007;SDS011;3032;49.484;11.112;2023-12-29T03:25:17;4.50;;;4.10;;
6007;SDS011;3032;49.484;11.112;2023-12-29T03:27:42;4.37;;;3.90;;
6007;SDS011;3032;49.484;11.112;2023-12-29T03:30:08;4.20;;;3.90;;
6007;SDS011;3032;49.484;11.112;2023-12-29T03:32:34;6.53;;;4.22;;
6007;SDS011;3032;49.484;11.112;2023-12-29T03:34:59;3.93;;;3.63;;
6007;SDS011;3032;49.484;11.112;2023-12-29T03:37:25;4.88;;;3.97;;
6007;SDS011;3032;49.484;11.112;2023-12-29T03:39:51;5.10;;;4.40;;
6007;SDS011;3032;49.484;11.112;2023-12-29T03:42:17;3.83;;;3.50;;
6007;SDS011;3032;49.484;11.112;2023-12-29T03:44:42;4.53;;;3.50;;
6007;SDS011;3032;49.484;11.112;2023-12-29T03:47:08;4.47;;;4.07;;
6007;SDS011;3032;49.484;11.112;2023-12-29T03:49:35;4.75;;;4.35;;
6007;SDS011;3032;49.484;11.112;2023-12-29T03:52:01;4.17;;;3.87;;
6007;SDS011;3032;49.484;11.112;2023-12-29T03:54:26;4.30;;;3.90;;
6007;SDS011;3032;49.484;11.112;2023-12-29T03:56:52;4.50;;;4.10;;
6007;SDS011;3032;49.484;11.112;2023-12-29T03:59:17;4.70;;;4.27;;
6007;SDS011;3032;49.484;11.112;2023-12-29T04:01:43;5.07;;;4.57;;
6007;SDS011;3032;49.484;11.112;2023-12-29T04:04:09;4.40;;;4.00;;
6007;SDS011;3032;49.484;11.112;2023-12-29T04:06:34;5.80;;;3.83;;
6007;SDS011;3032;49.484;11.112;2023-12-29T04:09:00;6.37;;;4.30;;
6007;SDS011;3032;49.484;11.112;2023-12-29T04:11:25;4.40;;;4.00;;
6007;SDS011;3032;49.484;11.112;2023-12-29T04:13:51;4.20;;;3.77;;
6007;SDS011;3032;49.484;11.112;2023-12-29T04:16:16;5.10;;;4.37;;
6007;SDS011;3032;49.484;11.112;2023-12-29T04:18:43;4.93;;;4.53;;
6007;SDS011;3032;49.484;11.112;2023-12-29T04:21:12;5.30;;;4.63;;
6007;SDS011;3032;49.484;11.112;2023-12-29T04:23:39;4.95;;;4.55;;
6007;SDS011;3032;49.484;11.112;2023-12-29T04:26:06;5.50;;;5.00;;
6007;SDS011;3032;49.484;11.112;2023-12-29T04:28:32;5.50;;;4.70;;
6007;SDS011;3032;49.484;11.112;2023-12-29T04:30:58;7.07;;;5.50;;
6007;SDS011;3032;49.484;11.112;2023-12-29T04:33:23;5.03;;;4.53;;
6007;SDS011;3032;49.484;11.112;2023-12-29T04:35:49;5.50;;;5.00;;
6007;SDS011;3032;49.484;11.112;2023-12-29T04:38:14;5.17;;;4.67;;
6007;SDS011;3032;49.484;11.112;2023-12-29T04:40:42;6.45;;;4.78;;
6007;SDS011;3032;49.484;11.112;2023-12-29T04:43:08;5.37;;;4.67;;
6007;SDS011;3032;49.484;11.112;2023-12-29T04:45:33;5.30;;;4.80;;
6007;SDS011;3032;49.484;11.112;2023-12-29T04:47:59;7.30;;;5.50;;
6007;SDS011;3032;49.484;11.112;2023-12-29T04:50:24;5.60;;;5.10;;
6007;SDS011;3032;49.484;11.112;2023-12-29T04:52:50;4.97;;;4.23;;
6007;SDS011;3032;49.484;11.112;2023-12-29T04:55:15;6.70;;;6.00;;
6007;SDS011;3032;49.484;11.112;2023-12-29T04:57:41;5.47;;;4.90;;
6007;SDS011;3032;49.484;11.112;2023-12-29T05:00:06;5.00;;;4.50;;
6007;SDS011;3032;49.484;11.112;2023-12-29T05:02:33;5.20;;;4.70;;
6007;SDS011;3032;49.484;11.112;2023-12-29T05:04:58;5.70;;;5.00;;
6007;SDS011;3032;49.484;11.112;2023-12-29T05:07:24;5.90;;;5.27;;
6007;SDS011;3032;49.484;11.112;2023-12-29T05:09:49;8.37;;;5.10;;
6007;SDS011;3032;49.484;11.112;2023-12-29T05:12:15;5.33;;;4.80;;
6007;SDS011;3032;49.484;11.112;2023-12-29T05:14:41;5.03;;;4.53;;
6007;SDS011;3032;49.484;11.112;2023-12-29T05:17:06;4.97;;;4.53;;
6007;SDS011;3032;49.484;11.112;2023-12-29T05:19:33;5.72;;;5.18;;
6007;SDS011;3032;49.484;11.112;2023-12-29T05:21:59;7.13;;;5.37;;
6007;SDS011;3032;49.484;11.112;2023-12-29T05:24:24;5.40;;;4.20;;
6007;SDS011;3032;49.484;11.112;2023-12-29T05:26:50;5.10;;;4.60;;
6007;SDS011;3032;49.484;11.112;2023-12-29T05:29:15;4.63;;;4.23;;
6007;SDS011;3032;49.484;11.112;2023-12-29T05:31:41;8.67;;;5.30;;
6007;SDS011;3032;49.484;11.112;2023-12-29T05:34:06;7.00;;;5.03;;
6007;SDS011;3032;49.484;11.112;2023-12-29T05:36:34;5.60;;;5.00;;
6007;SDS011;3032;49.484;11.112;2023-12-29T05:39:01;7.30;;;5.43;;
6007;SDS011;3032;49.484;11.112;2023-12-29T05:41:27;4.85;;;4.45;;
6007;SDS011;3032;49.484;11.112;2023-12-29T05:43:53;5.57;;;5.03;;
6007;SDS011;3032;49.484;11.112;2023-12-29T05:46:18;6.33;;;5.17;;
6007;SDS011;3032;49.484;11.112;2023-12-29T05:48:44;5.40;;;4.80;;
6007;SDS011;3032;49.484;11.112;2023-12-29T05:51:12;5.97;;;4.78;;
6007;SDS011;3032;49.484;11.112;2023-12-29T05:53:41;5.57;;;5.05;;
6007;SDS011;3032;49.484;11.112;2023-12-29T05:56:10;6.88;;;5.18;;
6007;SDS011;3032;49.484;11.112;2023-12-29T05:58:37;4.93;;;4.47;;
6007;SDS011;3032;49.484;11.112;2023-12-29T06:01:02;5.90;;;4.40;;
6007;SDS011;3032;49.484;11.112;2023-12-29T06:03:28;6.00;;;5.20;;
6007;SDS011;3032;49.484;11.112;2023-12-29T06:05:54;5.47;;;4.97;;
6007;SDS011;3032;49.484;11.112;2023-12-29T06:08:19;6.07;;;5.50;;
6007;SDS011;3032;49.484;11.112;2023-12-29T06:10:45;6.23;;;5.57;;
6007;SDS011;3032;49.484;11.112;2023-12-29T06:13:11;5.37;;;4.80;;
6007;SDS011;3032;49.484;11.112;2023-12-29T06:15:36;5.63;;;5.00;;
6007;SDS011;3032;49.484;11.112;2023-12-29T06:18:02;6.03;;;5.43;;
6007;SDS011;3032;49.484;11.112;2023-12-29T06:20:28;6.93;;;5.57;;
6007;SDS011;3032;49.484;11.112;2023-12-29T06:22:53;6.23;;;5.63;;
6007;SDS011;3032;49.484;11.112;2023-12-29T06:25:20;9.18;;;6.10;;
6007;SDS011;3032;49.484;11.112;2023-12-29T06:27:45;7.40;;;6.40;;
6007;SDS011;3032;49.484;11.112;2023-12-29T06:30:11;6.57;;;5.53;;
6007;SDS011;3032;49.484;11.112;2023-12-29T06:32:37;7.10;;;5.60;;
6007;SDS011;3032;49.484;11.112;2023-12-29T06:35:03;6.65;;;5.25;;
6007;SDS011;3032;49.484;11.112;2023-12-29T06:37:30;6.03;;;5.40;;
6007;SDS011;3032;49.484;11.112;2023-12-29T06:39:56;6.28;;;4.90;;
6007;SDS011;3032;49.484;11.112;2023-12-29T06:42:22;5.73;;;5.13;;
6007;SDS011;3032;49.484;11.112;2023-12-29T06:44:48;6.67;;;5.00;;
6007;SDS011;3032;49.484;11.112;2023-12-29T06:47:13;7.67;;;4.87;;
6007;SDS011;3032;49.484;11.112;2023-12-29T06:49:39;4.80;;;4.30;;
6007;SDS011;3032;49.484;11.112;2023-12-29T06:52:05;6.43;;;4.97;;
6007;SDS011;3032;49.484;11.112;2023-12-29T06:54:30;6.03;;;5.00;;
6007;SDS011;3032;49.484;11.112;2023-12-29T06:56:56;5.60;;;4.60;;
6007;SDS011;3032;49.484;11.112;2023-12-29T06:59:22;5.20;;;4.67;;
6007;SDS011;3032;49.484;11.112;2023-12-29T07:01:48;5.00;;;4.60;;
6007;SDS011;3032;49.484;11.112;2023-12-29T07:04:14;7.67;;;4.30;;
6007;SDS011;3032;49.484;11.112;2023-12-29T07:06:40;4.75;;;4.00;;
6007;SDS011;3032;49.484;11.112;2023-12-29T07:09:06;5.50;;;4.10;;
6007;SDS011;3032;49.484;11.112;2023-12-29T07:11:32;7.13;;;4.45;;
6007;SDS011;3032;49.484;11.112;2023-12-29T07:13:58;4.93;;;4.60;;
6007;SDS011;3032;49.484;11.112;2023-12-29T07:16:24;5.80;;;4.63;;
6007;SDS011;3032;49.484;11.112;2023-12-29T07:18:49;4.93;;;4.33;;
6007;SDS011;3032;49.484;11.112;2023-12-29T07:21:15;4.73;;;4.07;;
6007;SDS011;3032;49.484;11.112;2023-12-29T07:23:42;4.75;;;4.35;;
6007;SDS011;3032;49.484;11.112;2023-12-29T07:26:07;4.57;;;4.07;;
6007;SDS011;3032;49.484;11.112;2023-12-29T07:28:33;5.40;;;4.73;;
6007;SDS011;3032;49.484;11.112;2023-12-29T07:30:59;6.70;;;4.65;;
6007;SDS011;3032;49.484;11.112;2023-12-29T07:33:25;6.68;;;4.78;;
6007;SDS011;3032;49.484;11.112;2023-12-29T07:35:51;5.47;;;3.90;;
6007;SDS011;3032;49.484;11.112;2023-12-29T07:38:17;6.50;;;5.30;;
6007;SDS011;3032;49.484;11.112;2023-12-29T07:40:43;5.53;;;4.37;;
6007;SDS011;3032;49.484;11.112;2023-12-29T07:43:08;5.47;;;4.63;;
6007;SDS011;3032;49.484;11.112;2023-12-29T07:45:34;4.37;;;4.00;;
6007;SDS011;3032;49.484;11.112;2023-12-29T07:48:01;5.30;;;4.80;;
6007;SDS011;3032;49.484;11.112;2023-12-29T07:50:27;5.10;;;4.60;;
6007;SDS011;3032;49.484;11.112;2023-12-29T07:52:53;6.90;;;4.57;;
6007;SDS011;3032;49.484;11.112;2023-12-29T07:55:18;5.13;;;4.60;;
6007;SDS011;3032;49.484;11.112;2023-12-29T07:57:44;6.17;;;4.50;;
6007;SDS011;3032;49.484;11.112;2023-12-29T08:00:11;5.00;;;4.50;;
6007;SDS011;3032;49.484;11.112;2023-12-29T08:02:39;5.00;;;4.60;;
6007;SDS011;3032;49.484;11.112;2023-12-29T08:05:05;5.30;;;4.80;;
6007;SDS011;3032;49.484;11.112;2023-12-29T08:07:33;5.57;;;4.50;;
6007;SDS011;3032;49.484;11.112;2023-12-29T08:09:59;4.70;;;4.30;;
6007;SDS011;3032;49.484;11.112;2023-12-29T08:12:25;5.30;;;4.85;;
6007;SDS011;3032;49.484;11.112;2023-12-29T08:14:51;5.47;;;4.97;;
6007;SDS011;3032;49.484;11.112;2023-12-29T08:17:17;6.00;;;5.40;;
6007;SDS011;3032;49.484;11.112;2023-12-29T08:19:43;5.17;;;4.67;;
6007;SDS011;3032;49.484;11.112;2023-12-29T08:22:08;5.60;;;4.50;;
6007;SDS011;3032;49.484;11.112;2023-12-29T08:24:34;6.00;;;5.40;;
6007;SDS011;3032;49.484;11.112;2023-12-29T08:26:59;7.00;;;5.30;;
6007;SDS011;3032;49.484;11.112;2023-12-29T08:29:25;7.67;;;5.33;;
6007;SDS011;3032;49.484;11.112;2023-12-29T08:31:50;4.40;;;4.03;;
6007;SDS011;3032;49.484;11.112;2023-12-29T08:34:16;6.63;;;4.67;;
6007;SDS011;3032;49.484;11.112;2023-12-29T08:36:42;4.97;;;4.67;;
6007;SDS011;3032;49.484;11.112;2023-12-29T08:39:07;4.90;;;3.43;;
6007;SDS011;3032;49.484;11.112;2023-12-29T08:41:34;3.80;;;3.50;;
6007;SDS011;3032;49.484;11.112;2023-12-29T08:44:00;5.13;;;2.67;;
6007;SDS011;3032;49.484;11.112;2023-12-29T08:46:25;3.20;;;2.77;;
6007;SDS011;3032;49.484;11.112;2023-12-29T08:48:51;1.97;;;1.87;;
6007;SDS011;3032;49.484;11.112;2023-12-29T08:51:17;1.70;;;1.60;;
6007;SDS011;3032;49.484;11.112;2023-12-29T08:53:42;2.50;;;1.53;;
6007;SDS011;3032;49.484;11.112;2023-12-29T08:56:08;1.63;;;1.53;;
6007;SDS011;3032;49.484;11.112;2023-12-29T08:58:33;1.77;;;1.37;;
6007;SDS011;3032;49.484;11.112;2023-12-29T09:00:59;2.60;;;1.40;;
6007;SDS011;3032;49.484;11.112;2023-12-29T09:03:24;1.30;;;1.30;;
6007;SDS011;3032;49.484;11.112;2023-12-29T09:05:50;1.20;;;1.17;;
6007;SDS011;3032;49.484;11.112;2023-12-29T09:08:16;1.30;;;1.30;;
6007;SDS011;3032;49.484;11.112;2023-12-29T09:10:41;1.00;;;1.00;;
6007;SDS011;3032;49.484;11.112;2023-12-29T09:13:07;1.43;;;1.23;;
6007;SDS011;3032;49.484;11.112;2023-12-29T09:15:34;1.25;;;1.15;;
6007;SDS011;3032;49.484;11.112;2023-12-29T09:17:59;1.10;;;1.10;;
6007;SDS011;3032;49.484;11.112;2023-12-29T09:20:25;1.50;;;1.40;;
6007;SDS011;3032;49.484;11.112;2023-12-29T09:22:50;1.07;;;0.97;;
6007;SDS011;3032;49.484;11.112;2023-12-29T09:25:16;5.35;;;1.38;;
6007;SDS011;3032;49.484;11.112;2023-12-29T09:27:42;1.30;;;1.30;;
6007;SDS011;3032;49.484;11.112;2023-12-29T09:30:09;1.75;;;1.65;;
6007;SDS011;3032;49.484;11.112;2023-12-29T09:32:35;1.67;;;1.57;;
6007;SDS011;3032;49.484;11.112;2023-12-29T09:35:01;1.50;;;1.50;;
6007;SDS011;3032;49.484;11.112;2023-12-29T09:37:26;2.40;;;2.27;;
6007;SDS011;3032;49.484;11.112;2023-12-29T09:39:52;5.70;;;4.63;;
6007;SDS011;3032;49.484;11.112;2023-12-29T09:42:20;1.57;;;1.57;;
6007;SDS011;3032;49.484;11.112;2023-12-29T09:44:49;1.27;;;1.27;;
6007;SDS011;3032;49.484;11.112;2023-12-29T09:47:16;2.40;;;2.30;;
6007;SDS011;3032;49.484;11.112;2023-12-29T09:49:47;1.55;;;1.50;;
6007;SDS011;3032;49.484;11.112;2023-12-29T09:52:14;1.35;;;1.30;;
6007;SDS011;3032;49.484;11.112;2023-12-29T09:54:41;1.25;;;1.15;;
6007;SDS011;3032;49.484;11.112;2023-12-29T09:57:08;1.73;;;1.63;;
6007;SDS011;3032;49.484;11.112;2023-12-29T09:59:36;2.20;;;1.42;;
6007;SDS011;3032;49.484;11.112;2023-12-29T10:02:05;1.10;;;1.10;;
6007;SDS011;3032;49.484;11.112;2023-12-29T10:04:42;1.90;;;1.40;;
6007;SDS011;3032;49.484;11.112;2023-12-29T10:07:08;1.10;;;1.10;;
6007;SDS011;3032;49.484;11.112;2023-12-29T10:09:40;1.13;;;1.13;;
6007;SDS011;3032;49.484;11.112;2023-12-29T10:12:08;1.40;;;1.33;;
6007;SDS011;3032;49.484;11.112;2023-12-29T10:14:44;1.85;;;1.75;;
6007;SDS011;3032;49.484;11.112;2023-12-29T10:23:16;1.75;;;1.40;;
6007;SDS011;3032;49.484;11.112;2023-12-29T10:25:44;1.65;;;1.45;;
6007;SDS011;3032;49.484;11.112;2023-12-29T10:28:11;1.17;;;1.17;;
6007;SDS011;3032;49.484;11.112;2023-12-29T10:30:38;1.63;;;1.52;;
6007;SDS011;3032;49.484;11.112;2023-12-29T10:33:05;1.40;;;1.30;;
6007;SDS011;3032;49.484;11.112;2023-12-29T10:35:30;1.40;;;1.30;;
6007;SDS011;3032;49.484;11.112;2023-12-29T10:38:09;1.30;;;1.30;;
6007;SDS011;3032;49.484;11.112;2023-12-29T10:40:38;2.35;;;1.50;;
6007;SDS011;3032;49.484;11.112;2023-12-29T10:43:04;1.50;;;1.40;;
6007;SDS011;3032;49.484;11.112;2023-12-29T10:45:32;1.52;;;1.42;;
6007;SDS011;3032;49.484;11.112;2023-12-29T10:47:59;1.93;;;1.83;;
6007;SDS011;3032;49.484;11.112;2023-12-29T10:50:25;6.18;;;3.10;;
6007;SDS011;3032;49.484;11.112;2023-12-29T10:52:52;3.65;;;3.35;;
6007;SDS011;3032;49.484;11.112;2023-12-29T10:55:43;3.90;;;3.60;;
6007;SDS011;3032;49.484;11.112;2023-12-29T10:58:09;4.32;;;3.53;;
6007;SDS011;3032;49.484;11.112;2023-12-29T11:00:34;4.53;;;4.10;;
6007;SDS011;3032;49.484;11.112;2023-12-29T11:03:00;5.20;;;4.73;;
6007;SDS011;3032;49.484;11.112;2023-12-29T11:05:26;9.37;;;5.80;;
6007;SDS011;3032;49.484;11.112;2023-12-29T11:07:52;8.30;;;6.40;;
6007;SDS011;3032;49.484;11.112;2023-12-29T11:10:19;7.10;;;5.68;;
6007;SDS011;3032;49.484;11.112;2023-12-29T11:12:46;6.78;;;5.18;;
6007;SDS011;3032;49.484;11.112;2023-12-29T11:15:13;8.73;;;6.60;;
6007;SDS011;3032;49.484;11.112;2023-12-29T11:17:39;8.10;;;5.75;;
6007;SDS011;3032;49.484;11.112;2023-12-29T11:20:16;6.80;;;5.25;;
6007;SDS011;3032;49.484;11.112;2023-12-29T11:22:42;5.93;;;4.50;;
6007;SDS011;3032;49.484;11.112;2023-12-29T11:25:10;5.85;;;5.28;;
6007;SDS011;3032;49.484;11.112;2023-12-29T11:27:37;10.75;;;4.80;;
6007;SDS011;3032;49.484;11.112;2023-12-29T11:30:04;4.90;;;4.43;;
6007;SDS011;3032;49.484;11.112;2023-12-29T11:32:52;8.45;;;4.88;;
6007;SDS011;3032;49.484;11.112;2023-12-29T11:38:08;5.90;;;5.00;;
6007;SDS011;3032;49.484;11.112;2023-12-29T11:43:09;5.22;;;4.80;;
6007;SDS011;3032;49.484;11.112;2023-12-29T11:45:41;4.63;;;4.22;;
6007;SDS011;3032;49.484;11.112;2023-12-29T11:48:06;5.80;;;5.20;;
6007;SDS011;3032;49.484;11.112;2023-12-29T11:50:33;5.90;;;5.10;;
6007;SDS011;3032;49.484;11.112;2023-12-29T11:53:01;4.70;;;4.20;;
6007;SDS011;3032;49.484;11.112;2023-12-29T11:55:28;4.30;;;4.00;;
6007;SDS011;3032;49.484;11.112;2023-12-29T11:57:55;4.60;;;4.20;;
6007;SDS011;3032;49.484;11.112;2023-12-29T12:00:38;7.90;;;4.68;;
6007;SDS011;3032;49.484;11.112;2023-12-29T12:03:16;6.22;;;5.30;;
6007;SDS011;3032;49.484;11.112;2023-12-29T12:05:44;5.45;;;4.95;;
6007;SDS011;3032;49.484;11.112;2023-12-29T12:08:13;6.30;;;5.70;;
6007;SDS011;3032;49.484;11.112;2023-12-29T12:13:56;7.50;;;6.18;;
6007;SDS011;3032;49.484;11.112;2023-12-29T12:19:06;5.22;;;4.82;;
6007;SDS011;3032;49.484;11.112;2023-12-29T12:21:32;4.90;;;4.50;;
6007;SDS011;3032;49.484;11.112;2023-12-29T12:23:57;4.47;;;4.13;;
6007;SDS011;3032;49.484;11.112;2023-12-29T12:26:24;5.60;;;5.00;;
6007;SDS011;3032;49.484;11.112;2023-12-29T12:28:52;4.18;;;3.88;;
6007;SDS011;3032;49.484;11.112;2023-12-29T12:31:18;4.40;;;4.10;;
6007;SDS011;3032;49.484;11.112;2023-12-29T12:33:52;4.07;;;3.77;;
6007;SDS011;3032;49.484;11.112;2023-12-29T12:36:21;4.55;;;4.15;;
6007;SDS011;3032;49.484;11.112;2023-12-29T12:38:54;1.55;;;1.52;;
6007;SDS011;3032;49.484;11.112;2023-12-29T12:41:24;2.13;;;2.03;;
6007;SDS011;3032;49.484;11.112;2023-12-29T12:43:53;5.20;;;3.92;;
6007;SDS011;3032;49.484;11.112;2023-12-29T12:46:35;2.58;;;2.38;;
6007;SDS011;3032;49.484;11.112;2023-12-29T12:49:04;2.95;;;2.28;;
6007;SDS011;3032;49.484;11.112;2023-12-29T12:51:30;1.37;;;1.37;;
6007;SDS011;3032;49.484;11.112;2023-12-29T12:53:57;1.40;;;1.40;;
6007;SDS011;3032;49.484;11.112;2023-12-29T12:56:23;1.48;;;1.45;;
6007;SDS011;3032;49.484;11.112;2023-12-29T12:58:52;1.63;;;1.52;;
6007;SDS011;3032;49.484;11.112;2023-12-29T13:01:22;1.48;;;1.40;;
6007;SDS011;3032;49.484;11.112;2023-12-29T13:03:48;2.03;;;1.80;;
6007;SDS011;3032;49.484;11.112;2023-12-29T13:06:14;2.35;;;2.15;;
6007;SDS011;3032;49.484;11.112;2023-12-29T13:08:41;3.00;;;2.80;;
6007;SDS011;3032;49.484;11.112;2023-12-29T13:11:07;2.30;;;2.20;;
6007;SDS011;3032;49.484;11.112;2023-12-29T13:13:39;3.83;;;3.37;;
6007;SDS011;3032;49.484;11.112;2023-12-29T13:16:07;3.13;;;2.92;;
6007;SDS011;3032;49.484;11.112;2023-12-29T13:18:33;2.60;;;2.40;;
6007;SDS011;3032;49.484;11.112;2023-12-29T13:21:00;1.58;;;1.48;;
6007;SDS011;3032;49.484;11.112;2023-12-29T13:23:27;1.35;;;1.35;;
6007;SDS011;3032;49.484;11.112;2023-12-29T13:26:04;1.80;;;1.70;;
6007;SDS011;3032;49.484;11.112;2023-12-29T13:28:32;0.93;;;0.93;;
6007;SDS011;3032;49.484;11.112;2023-12-29T13:30:58;3.30;;;1.55;;
6007;SDS011;3032;49.484;11.112;2023-12-29T13:36:22;3.30;;;1.70;;
6007;SDS011;3032;49.484;11.112;2023-12-29T13:38:57;3.85;;;3.03;;
6007;SDS011;3032;49.484;11.112;2023-12-29T13:41:31;1.85;;;1.75;;
6007;SDS011;3032;49.484;11.112;2023-12-29T13:43:58;2.70;;;2.50;;
6007;SDS011;3032;49.484;11.112;2023-12-29T13:46:25;1.35;;;1.25;;
6007;SDS011;3032;49.484;11.112;2023-12-29T13:48:51;2.03;;;1.90;;
6007;SDS011;3032;49.484;11.112;2023-12-29T13:51:22;1.50;;;1.50;;
6007;SDS011;3032;49.484;11.112;2023-12-29T13:53:56;2.55;;;1.80;;
6007;SDS011;3032;49.484;11.112;2023-12-29T13:56:23;1.92;;;1.73;;
6007;SDS011;3032;49.484;11.112;2023-12-29T13:58:51;14.27;;;9.13;;
6007;SDS011;3032;49.484;11.112;2023-12-29T14:01:17;2.13;;;1.48;;
6007;SDS011;3032;49.484;11.112;2023-12-29T14:03:47;1.90;;;1.80;;
6007;SDS011;3032;49.484;11.112;2023-12-29T14:06:20;2.30;;;1.90;;
6007;SDS011;3032;49.484;11.112;2023-12-29T14:08:51;2.78;;;2.00;;
6007;SDS011;3032;49.484;11.112;2023-12-29T14:11:16;6.70;;;4.07;;
6007;SDS011;3032;49.484;11.112;2023-12-29T14:13:42;1.87;;;1.77;;
6007;SDS011;3032;49.484;11.112;2023-12-29T14:16:09;5.30;;;2.40;;
6007;SDS011;3032;49.484;11.112;2023-12-29T14:21:31;4.32;;;3.95;;
6007;SDS011;3032;49.484;11.112;2023-12-29T14:23:58;2.20;;;1.90;;
6007;SDS011;3032;49.484;11.112;2023-12-29T14:26:35;2.10;;;2.00;;
6007;SDS011;3032;49.484;11.112;2023-12-29T14:29:11;1.33;;;1.33;;
6007;SDS011;3032;49.484;11.112;2023-12-29T14:31:41;1.40;;;1.40;;
6007;SDS011;3032;49.484;11.112;2023-12-29T14:34:08;3.50;;;3.20;;
6007;SDS011;3032;49.484;11.112;2023-12-29T14:36:34;2.05;;;1.95;;
6007;SDS011;3032;49.484;11.112;2023-12-29T14:39:00;1.80;;;1.70;;
6007;SDS011;3032;49.484;11.112;2023-12-29T14:41:28;2.67;;;2.47;;
6007;SDS011;3032;49.484;11.112;2023-12-29T14:43:54;1.50;;;1.40;;
6007;SDS011;3032;49.484;11.112;2023-12-29T14:46:20;2.27;;;2.17;;
6007;SDS011;3032;49.484;11.112;2023-12-29T14:48:45;1.97;;;1.87;;
6007;SDS011;3032;49.484;11.112;2023-12-29T14:51:11;1.77;;;1.67;;
6007;SDS011;3032;49.484;11.112;2023-12-29T14:53:37;2.63;;;2.30;;
6007;SDS011;3032;49.484;11.112;2023-12-29T14:56:03;1.63;;;1.52;;
6007;SDS011;3032;49.484;11.112;2023-12-29T14:58:29;1.60;;;1.50;;
6007;SDS011;3032;49.484;11.112;2023-12-29T15:00:57;1.58;;;1.48;;
6007;SDS011;3032;49.484;11.112;2023-12-29T15:03:23;1.87;;;1.77;;
6007;SDS011;3032;49.484;11.112;2023-12-29T15:05:48;2.13;;;1.60;;
6007;SDS011;3032;49.484;11.112;2023-12-29T15:08:15;1.52;;;1.42;;
6007;SDS011;3032;49.484;11.112;2023-12-29T15:10:40;1.67;;;1.57;;
6007;SDS011;3032;49.484;11.112;2023-12-29T15:13:06;2.37;;;1.60;;
6007;SDS011;3032;49.484;11.112;2023-12-29T15:15:33;2.08;;;1.50;;
6007;SDS011;3032;49.484;11.112;2023-12-29T15:17:58;1.70;;;1.70;;
6007;SDS011;3032;49.484;11.112;2023-12-29T15:20:25;1.63;;;1.63;;
6007;SDS011;3032;49.484;11.112;2023-12-29T15:22:50;2.13;;;2.00;;
6007;SDS011;3032;49.484;11.112;2023-12-29T15:25:17;1.70;;;1.60;;